Reeves, Louisiana
Current Conditions -  °F | °C
As of 3:55 AM on Thursday 23 Oct 2014 (Local Time) from KCWF Reporting Station
Clear Clear  
Wind Chill: 56°   Ceiling: Unl
Heat Index: 56°   Visibility: 10mi
Dew Point: 51°   Wind: 6mph
Humidity: 83%   Direction: 30°NNE
Pressure: 30.07"   Gusts: NA
Location:  30.52°N, 93.05°W
Report Text: KCWF 230855Z AUTO 03005KT 10SM CLR 13/10 A3007 RMK AO2 T01350107
Loading
Personal Weather Stations






























Interactive Weather Map
Tropical Storm Tracking
New forecast layout! Learn more

10-Day Weather Forecast

Advertisements
Track Severe Weather on mobile